sensor_id;sensor_type;location;lat;lon;timestamp;temperature;humidity
3866;DHT22;1948;53.250;10.412;2022-11-20T00:01:32;3.40;99.90
3866;DHT22;1948;53.250;10.412;2022-11-20T00:04:00;3.40;99.90
3866;DHT22;1948;53.250;10.412;2022-11-20T00:06:28;3.40;99.90
3866;DHT22;1948;53.250;10.412;2022-11-20T00:08:56;3.40;99.90
3866;DHT22;1948;53.250;10.412;2022-11-20T00:11:29;3.40;99.90
3866;DHT22;1948;53.250;10.412;2022-11-20T00:13:58;3.30;99.90
3866;DHT22;1948;53.250;10.412;2022-11-20T00:16:28;3.30;99.90
3866;DHT22;1948;53.250;10.412;2022-11-20T00:18:59;3.30;99.90
3866;DHT22;1948;53.250;10.412;2022-11-20T00:21:27;3.20;99.90
3866;DHT22;1948;53.250;10.412;2022-11-20T00:23:56;3.20;99.90
3866;DHT22;1948;53.250;10.412;2022-11-20T00:26:25;3.20;99.90
3866;DHT22;1948;53.250;10.412;2022-11-20T00:28:58;3.20;99.90
3866;DHT22;1948;53.250;10.412;2022-11-20T00:31:27;3.20;99.90
3866;DHT22;1948;53.250;10.412;2022-11-20T00:33:54;3.10;99.90
3866;DHT22;1948;53.250;10.412;2022-11-20T00:36:23;3.10;99.90
3866;DHT22;1948;53.250;10.412;2022-11-20T00:38:53;3.10;99.90
3866;DHT22;1948;53.250;10.412;2022-11-20T00:41:21;3.00;99.90
3866;DHT22;1948;53.250;10.412;2022-11-20T00:43:48;3.00;99.90
3866;DHT22;1948;53.250;10.412;2022-11-20T00:46:20;3.00;99.90
3866;DHT22;1948;53.250;10.412;2022-11-20T00:48:50;3.00;99.90
3866;DHT22;1948;53.250;10.412;2022-11-20T00:51:19;2.90;99.90
3866;DHT22;1948;53.250;10.412;2022-11-20T00:53:50;2.80;99.90
3866;DHT22;1948;53.250;10.412;2022-11-20T00:56:18;2.80;99.90
3866;DHT22;1948;53.250;10.412;2022-11-20T00:58:47;2.70;99.90
3866;DHT22;1948;53.250;10.412;2022-11-20T01:01:23;2.80;99.90
3866;DHT22;1948;53.250;10.412;2022-11-20T01:03:55;2.80;99.90
3866;DHT22;1948;53.250;10.412;2022-11-20T01:06:34;2.80;99.90
3866;DHT22;1948;53.250;10.412;2022-11-20T01:09:10;2.80;99.90
3866;DHT22;1948;53.250;10.412;2022-11-20T01:11:44;2.80;99.90
3866;DHT22;1948;53.250;10.412;2022-11-20T01:14:17;2.90;99.90
3866;DHT22;1948;53.250;10.412;2022-11-20T01:16:47;2.90;99.90
3866;DHT22;1948;53.250;10.412;2022-11-20T01:19:23;2.90;99.90
3866;DHT22;1948;53.250;10.412;2022-11-20T01:21:54;3.00;99.90
3866;DHT22;1948;53.250;10.412;2022-11-20T01:24:22;3.00;99.90
3866;DHT22;1948;53.250;10.412;2022-11-20T01:26:50;3.00;99.90
3866;DHT22;1948;53.250;10.412;2022-11-20T01:29:20;3.00;99.90
3866;DHT22;1948;53.250;10.412;2022-11-20T01:31:49;3.00;99.90
3866;DHT22;1948;53.250;10.412;2022-11-20T01:34:21;3.00;99.90
3866;DHT22;1948;53.250;10.412;2022-11-20T01:36:51;3.00;99.90
3866;DHT22;1948;53.250;10.412;2022-11-20T01:39:27;3.10;99.90
3866;DHT22;1948;53.250;10.412;2022-11-20T01:41:55;3.10;99.90
3866;DHT22;1948;53.250;10.412;2022-11-20T01:44:59;3.10;99.90
3866;DHT22;1948;53.250;10.412;2022-11-20T01:47:43;3.00;99.90
3866;DHT22;1948;53.250;10.412;2022-11-20T01:50:23;3.00;99.90
3866;DHT22;1948;53.250;10.412;2022-11-20T01:52:56;2.90;99.90
3866;DHT22;1948;53.250;10.412;2022-11-20T01:55:32;2.90;99.90
3866;DHT22;1948;53.250;10.412;2022-11-20T01:58:01;2.90;99.90
3866;DHT22;1948;53.250;10.412;2022-11-20T02:00:29;2.90;99.90
3866;DHT22;1948;53.250;10.412;2022-11-20T02:03:07;2.80;99.90
3866;DHT22;1948;53.250;10.412;2022-11-20T02:05:41;2.80;99.90
3866;DHT22;1948;53.250;10.412;2022-11-20T02:08:12;2.70;99.90
3866;DHT22;1948;53.250;10.412;2022-11-20T02:10:42;2.70;99.90
3866;DHT22;1948;53.250;10.412;2022-11-20T02:13:09;2.70;99.90
3866;DHT22;1948;53.250;10.412;2022-11-20T02:15:57;2.80;99.90
3866;DHT22;1948;53.250;10.412;2022-11-20T02:18:26;2.80;99.90
3866;DHT22;1948;53.250;10.412;2022-11-20T02:21:02;2.70;99.90
3866;DHT22;1948;53.250;10.412;2022-11-20T02:24:06;2.60;99.90
3866;DHT22;1948;53.250;10.412;2022-11-20T02:26:54;2.60;99.90
3866;DHT22;1948;53.250;10.412;2022-11-20T02:32:32;2.50;99.90
3866;DHT22;1948;53.250;10.412;2022-11-20T02:35:09;2.40;99.90
3866;DHT22;1948;53.250;10.412;2022-11-20T02:38:00;2.30;99.90
3866;DHT22;1948;53.250;10.412;2022-11-20T02:40:28;2.30;99.90
3866;DHT22;1948;53.250;10.412;2022-11-20T02:42:58;2.20;99.90
3866;DHT22;1948;53.250;10.412;2022-11-20T02:45:25;2.10;99.90
3866;DHT22;1948;53.250;10.412;2022-11-20T02:47:52;2.10;99.90
3866;DHT22;1948;53.250;10.412;2022-11-20T02:50:19;2.10;99.90
3866;DHT22;1948;53.250;10.412;2022-11-20T02:52:46;2.10;99.90
3866;DHT22;1948;53.250;10.412;2022-11-20T02:55:13;2.10;99.90
3866;DHT22;1948;53.250;10.412;2022-11-20T02:57:40;2.10;99.90
3866;DHT22;1948;53.250;10.412;2022-11-20T03:00:08;2.20;99.90
3866;DHT22;1948;53.250;10.412;2022-11-20T03:02:35;2.20;99.90
3866;DHT22;1948;53.250;10.412;2022-11-20T03:05:03;2.20;99.90
3866;DHT22;1948;53.250;10.412;2022-11-20T03:07:32;2.20;99.90
3866;DHT22;1948;53.250;10.412;2022-11-20T03:10:02;2.20;99.90
3866;DHT22;1948;53.250;10.412;2022-11-20T03:12:33;2.30;99.90
3866;DHT22;1948;53.250;10.412;2022-11-20T03:15:00;2.30;99.90
3866;DHT22;1948;53.250;10.412;2022-11-20T03:17:27;2.30;99.90
3866;DHT22;1948;53.250;10.412;2022-11-20T03:19:59;2.40;99.90
3866;DHT22;1948;53.250;10.412;2022-11-20T03:22:29;2.40;99.90
3866;DHT22;1948;53.250;10.412;2022-11-20T03:24:56;2.40;99.90
3866;DHT22;1948;53.250;10.412;2022-11-20T03:27:26;2.50;99.90
3866;DHT22;1948;53.250;10.412;2022-11-20T03:29:55;2.50;99.90
3866;DHT22;1948;53.250;10.412;2022-11-20T03:32:24;2.50;99.90
3866;DHT22;1948;53.250;10.412;2022-11-20T03:34:51;2.50;99.90
3866;DHT22;1948;53.250;10.412;2022-11-20T03:37:21;2.50;99.90
3866;DHT22;1948;53.250;10.412;2022-11-20T03:39:48;2.50;99.90
3866;DHT22;1948;53.250;10.412;2022-11-20T03:42:17;2.40;99.90
3866;DHT22;1948;53.250;10.412;2022-11-20T03:45:05;2.40;99.90
3866;DHT22;1948;53.250;10.412;2022-11-20T03:47:32;2.40;99.90
3866;DHT22;1948;53.250;10.412;2022-11-20T03:49:59;2.40;99.90
3866;DHT22;1948;53.250;10.412;2022-11-20T03:52:26;2.40;99.90
3866;DHT22;1948;53.250;10.412;2022-11-20T03:54:53;2.40;99.90
3866;DHT22;1948;53.250;10.412;2022-11-20T03:57:20;2.40;99.90
3866;DHT22;1948;53.250;10.412;2022-11-20T03:59:49;2.50;99.90
3866;DHT22;1948;53.250;10.412;2022-11-20T04:02:18;2.50;99.90
3866;DHT22;1948;53.250;10.412;2022-11-20T04:04:47;2.50;99.90
3866;DHT22;1948;53.250;10.412;2022-11-20T04:07:19;2.60;99.90
3866;DHT22;1948;53.250;10.412;2022-11-20T04:09:48;2.60;99.90
3866;DHT22;1948;53.250;10.412;2022-11-20T04:12:15;2.60;99.90
3866;DHT22;1948;53.250;10.412;2022-11-20T04:14:42;2.60;99.90
3866;DHT22;1948;53.250;10.412;2022-11-20T04:17:11;2.60;99.90
3866;DHT22;1948;53.250;10.412;2022-11-20T04:19:43;2.50;99.90
3866;DHT22;1948;53.250;10.412;2022-11-20T04:22:12;2.40;99.90
3866;DHT22;1948;53.250;10.412;2022-11-20T04:24:41;2.40;99.90
3866;DHT22;1948;53.250;10.412;2022-11-20T04:27:10;2.50;99.90
3866;DHT22;1948;53.250;10.412;2022-11-20T04:29:40;2.50;99.90
3866;DHT22;1948;53.250;10.412;2022-11-20T04:32:09;2.40;99.90
3866;DHT22;1948;53.250;10.412;2022-11-20T04:34:38;2.40;99.90
3866;DHT22;1948;53.250;10.412;2022-11-20T04:37:05;2.40;99.90
3866;DHT22;1948;53.250;10.412;2022-11-20T04:39:32;2.50;99.90
3866;DHT22;1948;53.250;10.412;2022-11-20T04:41:59;2.40;99.90
3866;DHT22;1948;53.250;10.412;2022-11-20T04:44:44;2.40;99.90
3866;DHT22;1948;53.250;10.412;2022-11-20T04:47:11;2.50;99.90
3866;DHT22;1948;53.250;10.412;2022-11-20T04:49:38;2.50;99.90
3866;DHT22;1948;53.250;10.412;2022-11-20T04:52:08;2.40;99.90
3866;DHT22;1948;53.250;10.412;2022-11-20T04:54:35;2.40;99.90
3866;DHT22;1948;53.250;10.412;2022-11-20T04:57:02;2.50;99.90
3866;DHT22;1948;53.250;10.412;2022-11-20T04:59:38;2.40;99.90
3866;DHT22;1948;53.250;10.412;2022-11-20T05:02:10;2.40;99.90
3866;DHT22;1948;53.250;10.412;2022-11-20T05:04:38;2.40;99.90
3866;DHT22;1948;53.250;10.412;2022-11-20T05:07:05;2.40;99.90
3866;DHT22;1948;53.250;10.412;2022-11-20T05:09:32;2.40;99.90
3866;DHT22;1948;53.250;10.412;2022-11-20T05:12:01;2.50;99.90
3866;DHT22;1948;53.250;10.412;2022-11-20T05:14:30;2.50;99.90
3866;DHT22;1948;53.250;10.412;2022-11-20T05:16:59;2.60;99.90
3866;DHT22;1948;53.250;10.412;2022-11-20T05:19:26;2.60;99.90
3866;DHT22;1948;53.250;10.412;2022-11-20T05:21:56;2.50;99.90
3866;DHT22;1948;53.250;10.412;2022-11-20T05:24:23;2.50;99.90
3866;DHT22;1948;53.250;10.412;2022-11-20T05:26:55;2.50;99.90
3866;DHT22;1948;53.250;10.412;2022-11-20T05:29:22;2.40;99.90
3866;DHT22;1948;53.250;10.412;2022-11-20T05:31:49;2.50;99.90
3866;DHT22;1948;53.250;10.412;2022-11-20T05:34:16;2.50;99.90
3866;DHT22;1948;53.250;10.412;2022-11-20T05:36:43;2.50;99.90
3866;DHT22;1948;53.250;10.412;2022-11-20T05:39:09;2.60;99.90
3866;DHT22;1948;53.250;10.412;2022-11-20T05:41:39;2.60;99.90
3866;DHT22;1948;53.250;10.412;2022-11-20T05:44:05;2.60;99.90
3866;DHT22;1948;53.250;10.412;2022-11-20T05:46:35;2.60;99.90
3866;DHT22;1948;53.250;10.412;2022-11-20T05:49:02;2.70;99.90
3866;DHT22;1948;53.250;10.412;2022-11-20T05:51:29;2.70;99.90
3866;DHT22;1948;53.250;10.412;2022-11-20T05:53:59;2.70;99.90
3866;DHT22;1948;53.250;10.412;2022-11-20T05:56:26;2.60;99.90
3866;DHT22;1948;53.250;10.412;2022-11-20T05:58:53;2.60;99.90
3866;DHT22;1948;53.250;10.412;2022-11-20T06:01:24;2.60;99.90
3866;DHT22;1948;53.250;10.412;2022-11-20T06:03:53;2.60;99.90
3866;DHT22;1948;53.250;10.412;2022-11-20T06:06:20;2.60;99.90
3866;DHT22;1948;53.250;10.412;2022-11-20T06:08:48;2.60;99.90
3866;DHT22;1948;53.250;10.412;2022-11-20T06:11:16;2.50;99.90
3866;DHT22;1948;53.250;10.412;2022-11-20T06:13:43;2.50;99.90
3866;DHT22;1948;53.250;10.412;2022-11-20T06:16:15;2.50;99.90
3866;DHT22;1948;53.250;10.412;2022-11-20T06:18:44;2.50;99.90
3866;DHT22;1948;53.250;10.412;2022-11-20T06:21:16;2.50;99.90
3866;DHT22;1948;53.250;10.412;2022-11-20T06:23:44;2.40;99.90
3866;DHT22;1948;53.250;10.412;2022-11-20T06:26:20;2.40;99.90
3866;DHT22;1948;53.250;10.412;2022-11-20T06:28:54;2.40;99.90
3866;DHT22;1948;53.250;10.412;2022-11-20T06:31:24;2.40;99.90
3866;DHT22;1948;53.250;10.412;2022-11-20T06:33:52;2.30;99.90
3866;DHT22;1948;53.250;10.412;2022-11-20T06:36:22;2.40;99.90
3866;DHT22;1948;53.250;10.412;2022-11-20T06:38:49;2.40;99.90
3866;DHT22;1948;53.250;10.412;2022-11-20T06:41:22;2.40;99.90
3866;DHT22;1948;53.250;10.412;2022-11-20T06:43:49;2.40;99.90
3866;DHT22;1948;53.250;10.412;2022-11-20T06:46:18;2.40;99.90
3866;DHT22;1948;53.250;10.412;2022-11-20T06:48:49;2.40;99.90
3866;DHT22;1948;53.250;10.412;2022-11-20T06:51:17;2.40;99.90
3866;DHT22;1948;53.250;10.412;2022-11-20T06:53:44;2.30;99.90
3866;DHT22;1948;53.250;10.412;2022-11-20T06:56:16;2.20;99.90
3866;DHT22;1948;53.250;10.412;2022-11-20T06:58:50;2.20;99.90
3866;DHT22;1948;53.250;10.412;2022-11-20T07:01:19;2.20;99.90
3866;DHT22;1948;53.250;10.412;2022-11-20T07:03:50;2.20;99.90
3866;DHT22;1948;53.250;10.412;2022-11-20T07:06:20;2.20;99.90
3866;DHT22;1948;53.250;10.412;2022-11-20T07:08:47;2.20;99.90
3866;DHT22;1948;53.250;10.412;2022-11-20T07:11:14;2.20;99.90
3866;DHT22;1948;53.250;10.412;2022-11-20T07:13:41;2.20;99.90
3866;DHT22;1948;53.250;10.412;2022-11-20T07:16:08;2.30;99.90
3866;DHT22;1948;53.250;10.412;2022-11-20T07:18:36;2.30;99.90
3866;DHT22;1948;53.250;10.412;2022-11-20T07:21:09;2.30;99.90
3866;DHT22;1948;53.250;10.412;2022-11-20T07:23:37;2.30;99.90
3866;DHT22;1948;53.250;10.412;2022-11-20T07:26:09;2.40;99.90
3866;DHT22;1948;53.250;10.412;2022-11-20T07:28:37;2.40;99.90
3866;DHT22;1948;53.250;10.412;2022-11-20T07:31:04;2.40;99.90
3866;DHT22;1948;53.250;10.412;2022-11-20T07:33:34;2.40;99.90
3866;DHT22;1948;53.250;10.412;2022-11-20T07:36:01;2.40;99.90
3866;DHT22;1948;53.250;10.412;2022-11-20T07:38:28;2.50;99.90
3866;DHT22;1948;53.250;10.412;2022-11-20T07:40:56;2.60;99.90
3866;DHT22;1948;53.250;10.412;2022-11-20T07:43:29;2.60;99.90
3866;DHT22;1948;53.250;10.412;2022-11-20T07:46:06;2.70;99.90
3866;DHT22;1948;53.250;10.412;2022-11-20T07:48:33;2.80;99.90
3866;DHT22;1948;53.250;10.412;2022-11-20T07:51:02;2.80;99.90
3866;DHT22;1948;53.250;10.412;2022-11-20T07:53:34;2.80;99.90
3866;DHT22;1948;53.250;10.412;2022-11-20T07:56:02;2.90;99.90
3866;DHT22;1948;53.250;10.412;2022-11-20T07:58:29;3.00;99.90
3866;DHT22;1948;53.250;10.412;2022-11-20T08:01:04;3.00;99.90
3866;DHT22;1948;53.250;10.412;2022-11-20T08:03:32;3.00;99.90
3866;DHT22;1948;53.250;10.412;2022-11-20T08:06:00;3.20;99.90
3866;DHT22;1948;53.250;10.412;2022-11-20T08:08:28;3.20;99.90
3866;DHT22;1948;53.250;10.412;2022-11-20T08:11:00;3.30;99.90
3866;DHT22;1948;53.250;10.412;2022-11-20T08:13:46;3.50;99.90
3866;DHT22;1948;53.250;10.412;2022-11-20T08:16:31;3.70;99.90
3866;DHT22;1948;53.250;10.412;2022-11-20T08:18:58;3.80;99.90
3866;DHT22;1948;53.250;10.412;2022-11-20T08:21:25;4.00;99.90
3866;DHT22;1948;53.250;10.412;2022-11-20T08:23:52;4.10;99.90
3866;DHT22;1948;53.250;10.412;2022-11-20T08:26:22;4.10;99.90
3866;DHT22;1948;53.250;10.412;2022-11-20T08:28:53;4.40;99.90
3866;DHT22;1948;53.250;10.412;2022-11-20T08:31:21;4.90;99.90
3866;DHT22;1948;53.250;10.412;2022-11-20T08:33:56;6.10;99.90
3866;DHT22;1948;53.250;10.412;2022-11-20T08:36:25;7.40;99.90
3866;DHT22;1948;53.250;10.412;2022-11-20T08:38:54;8.90;99.90
3866;DHT22;1948;53.250;10.412;2022-11-20T08:41:22;9.60;99.90
3866;DHT22;1948;53.250;10.412;2022-11-20T08:43:58;9.20;99.90
3866;DHT22;1948;53.250;10.412;2022-11-20T08:46:33;8.90;99.90
3866;DHT22;1948;53.250;10.412;2022-11-20T08:49:04;8.60;99.90
3866;DHT22;1948;53.250;10.412;2022-11-20T08:51:33;8.20;99.90
3866;DHT22;1948;53.250;10.412;2022-11-20T08:54:03;8.00;99.90
3866;DHT22;1948;53.250;10.412;2022-11-20T08:56:30;7.90;99.90
3866;DHT22;1948;53.250;10.412;2022-11-20T08:59:03;7.50;99.90
3866;DHT22;1948;53.250;10.412;2022-11-20T09:01:50;7.40;99.90
3866;DHT22;1948;53.250;10.412;2022-11-20T09:09:46;8.40;99.90
3866;DHT22;1948;53.250;10.412;2022-11-20T09:12:34;10.10;99.90
3866;DHT22;1948;53.250;10.412;2022-11-20T09:15:01;10.50;99.90
3866;DHT22;1948;53.250;10.412;2022-11-20T09:17:27;10.50;99.90
3866;DHT22;1948;53.250;10.412;2022-11-20T09:19:56;10.20;99.90
3866;DHT22;1948;53.250;10.412;2022-11-20T09:22:23;9.80;99.90
3866;DHT22;1948;53.250;10.412;2022-11-20T09:24:50;9.30;99.90
3866;DHT22;1948;53.250;10.412;2022-11-20T09:27:18;8.60;99.90
3866;DHT22;1948;53.250;10.412;2022-11-20T09:29:48;8.10;99.90
3866;DHT22;1948;53.250;10.412;2022-11-20T09:32:15;7.70;99.90
3866;DHT22;1948;53.250;10.412;2022-11-20T09:34:42;7.40;99.90
3866;DHT22;1948;53.250;10.412;2022-11-20T09:37:09;7.00;99.90
3866;DHT22;1948;53.250;10.412;2022-11-20T09:39:36;6.70;99.90
3866;DHT22;1948;53.250;10.412;2022-11-20T09:53:49;5.60;99.90
3866;DHT22;1948;53.250;10.412;2022-11-20T10:00:05;5.80;99.90
3866;DHT22;1948;53.250;10.412;2022-11-20T10:03:01;6.20;99.90
3866;DHT22;1948;53.250;10.412;2022-11-20T10:25:39;9.80;99.90
3866;DHT22;1948;53.250;10.412;2022-11-20T10:31:34;8.90;99.90
3866;DHT22;1948;53.250;10.412;2022-11-20T10:34:28;8.10;99.90
3866;DHT22;1948;53.250;10.412;2022-11-20T10:37:17;7.80;99.90
3866;DHT22;1948;53.250;10.412;2022-11-20T10:42:28;8.10;99.90
3866;DHT22;1948;53.250;10.412;2022-11-20T10:45:13;8.20;99.90
3866;DHT22;1948;53.250;10.412;2022-11-20T10:48:01;8.50;99.90
3866;DHT22;1948;53.250;10.412;2022-11-20T10:54:09;9.60;99.90
3866;DHT22;1948;53.250;10.412;2022-11-20T10:56:47;9.70;99.90
3866;DHT22;1948;53.250;10.412;2022-11-20T11:02:22;10.30;99.90
3866;DHT22;1948;53.250;10.412;2022-11-20T11:04:52;10.10;99.90
3866;DHT22;1948;53.250;10.412;2022-11-20T11:07:39;10.10;99.90
3866;DHT22;1948;53.250;10.412;2022-11-20T11:10:18;12.00;99.90
3866;DHT22;1948;53.250;10.412;2022-11-20T11:13:19;14.50;99.90
3866;DHT22;1948;53.250;10.412;2022-11-20T11:15:54;16.50;99.90
3866;DHT22;1948;53.250;10.412;2022-11-20T11:18:32;17.20;99.90
3866;DHT22;1948;53.250;10.412;2022-11-20T11:21:02;16.60;99.90
3866;DHT22;1948;53.250;10.412;2022-11-20T11:23:39;16.10;99.90
3866;DHT22;1948;53.250;10.412;2022-11-20T11:26:20;15.60;99.90
3866;DHT22;1948;53.250;10.412;2022-11-20T11:29:00;15.10;99.90
3866;DHT22;1948;53.250;10.412;2022-11-20T11:31:33;17.00;99.90
3866;DHT22;1948;53.250;10.412;2022-11-20T11:36:34;19.30;97.60
3866;DHT22;1948;53.250;10.412;2022-11-20T11:39:05;19.30;94.70
3866;DHT22;1948;53.250;10.412;2022-11-20T11:41:38;17.20;94.40
3866;DHT22;1948;53.250;10.412;2022-11-20T11:44:18;15.50;96.10
3866;DHT22;1948;53.250;10.412;2022-11-20T11:47:19;13.20;98.90
3866;DHT22;1948;53.250;10.412;2022-11-20T11:49:51;12.20;99.90
3866;DHT22;1948;53.250;10.412;2022-11-20T11:55:34;9.90;99.90
3866;DHT22;1948;53.250;10.412;2022-11-20T12:03:52;8.30;99.90
3866;DHT22;1948;53.250;10.412;2022-11-20T12:06:28;8.00;99.90
3866;DHT22;1948;53.250;10.412;2022-11-20T12:09:03;7.80;99.90
3866;DHT22;1948;53.250;10.412;2022-11-20T12:14:34;8.00;99.90
3866;DHT22;1948;53.250;10.412;2022-11-20T12:17:04;9.10;99.90
3866;DHT22;1948;53.250;10.412;2022-11-20T12:19:34;9.50;99.90
3866;DHT22;1948;53.250;10.412;2022-11-20T12:22:35;10.90;99.90
3866;DHT22;1948;53.250;10.412;2022-11-20T12:25:11;12.30;99.90
3866;DHT22;1948;53.250;10.412;2022-11-20T12:30:21;12.00;99.90
3866;DHT22;1948;53.250;10.412;2022-11-20T12:39:04;11.20;99.90
3866;DHT22;1948;53.250;10.412;2022-11-20T12:42:06;10.50;99.90
3866;DHT22;1948;53.250;10.412;2022-11-20T12:59:23;7.70;99.90
3866;DHT22;1948;53.250;10.412;2022-11-20T13:05:03;7.30;99.90
3866;DHT22;1948;53.250;10.412;2022-11-20T13:07:35;7.20;99.90
3866;DHT22;1948;53.250;10.412;2022-11-20T13:10:04;7.00;99.90
3866;DHT22;1948;53.250;10.412;2022-11-20T13:12:47;6.90;99.90
3866;DHT22;1948;53.250;10.412;2022-11-20T13:18:13;6.50;99.90
3866;DHT22;1948;53.250;10.412;2022-11-20T13:20:46;6.30;99.90
3866;DHT22;1948;53.250;10.412;2022-11-20T13:23:26;6.10;99.90
3866;DHT22;1948;53.250;10.412;2022-11-20T13:26:05;6.10;99.90
3866;DHT22;1948;53.250;10.412;2022-11-20T13:28:33;6.10;99.90
3866;DHT22;1948;53.250;10.412;2022-11-20T13:31:03;6.10;99.90
3866;DHT22;1948;53.250;10.412;2022-11-20T13:33:38;6.00;99.90
3866;DHT22;1948;53.250;10.412;2022-11-20T13:36:19;5.90;99.90
3866;DHT22;1948;53.250;10.412;2022-11-20T13:38:58;5.90;99.90
3866;DHT22;1948;53.250;10.412;2022-11-20T13:41:32;6.00;99.90
3866;DHT22;1948;53.250;10.412;2022-11-20T13:44:14;5.90;99.90
3866;DHT22;1948;53.250;10.412;2022-11-20T13:46:48;5.90;99.90
3866;DHT22;1948;53.250;10.412;2022-11-20T13:49:39;5.90;99.90
3866;DHT22;1948;53.250;10.412;2022-11-20T14:01:11;5.70;99.90
3866;DHT22;1948;53.250;10.412;2022-11-20T14:03:41;5.70;99.90
3866;DHT22;1948;53.250;10.412;2022-11-20T14:06:32;5.70;99.90
3866;DHT22;1948;53.250;10.412;2022-11-20T14:09:11;5.60;99.90
3866;DHT22;1948;53.250;10.412;2022-11-20T14:11:46;5.40;99.90
3866;DHT22;1948;53.250;10.412;2022-11-20T14:14:20;5.40;99.90
3866;DHT22;1948;53.250;10.412;2022-11-20T14:16:50;5.30;99.90
3866;DHT22;1948;53.250;10.412;2022-11-20T14:24:45;5.20;99.90
3866;DHT22;1948;53.250;10.412;2022-11-20T14:27:20;5.10;99.90
3866;DHT22;1948;53.250;10.412;2022-11-20T14:29:49;5.10;99.90
3866;DHT22;1948;53.250;10.412;2022-11-20T14:32:20;5.10;99.90
3866;DHT22;1948;53.250;10.412;2022-11-20T14:34:49;5.00;99.90
3866;DHT22;1948;53.250;10.412;2022-11-20T14:37:21;5.00;99.90
3866;DHT22;1948;53.250;10.412;2022-11-20T14:39:52;4.90;99.90
3866;DHT22;1948;53.250;10.412;2022-11-20T14:42:25;4.90;99.90
3866;DHT22;1948;53.250;10.412;2022-11-20T14:44:59;4.90;99.90
3866;DHT22;1948;53.250;10.412;2022-11-20T14:47:30;4.80;99.90
3866;DHT22;1948;53.250;10.412;2022-11-20T14:49:58;4.80;99.90
3866;DHT22;1948;53.250;10.412;2022-11-20T14:52:35;4.80;99.90
3866;DHT22;1948;53.250;10.412;2022-11-20T14:55:04;4.80;99.90
3866;DHT22;1948;53.250;10.412;2022-11-20T14:57:35;4.80;99.90
3866;DHT22;1948;53.250;10.412;2022-11-20T15:02:45;4.80;99.90
3866;DHT22;1948;53.250;10.412;2022-11-20T15:05:14;4.80;99.90
3866;DHT22;1948;53.250;10.412;2022-11-20T15:07:49;4.80;99.90
3866;DHT22;1948;53.250;10.412;2022-11-20T15:12:54;4.80;99.90
3866;DHT22;1948;53.250;10.412;2022-11-20T15:15:34;4.80;99.90
3866;DHT22;1948;53.250;10.412;2022-11-20T15:18:21;4.70;99.90
3866;DHT22;1948;53.250;10.412;2022-11-20T15:20:50;4.60;99.90
3866;DHT22;1948;53.250;10.412;2022-11-20T15:23:19;4.50;99.90
3866;DHT22;1948;53.250;10.412;2022-11-20T15:25:47;4.40;99.90
3866;DHT22;1948;53.250;10.412;2022-11-20T15:28:23;4.30;99.90
3866;DHT22;1948;53.250;10.412;2022-11-20T15:31:00;4.20;99.90
3866;DHT22;1948;53.250;10.412;2022-11-20T15:33:30;4.10;99.90
3866;DHT22;1948;53.250;10.412;2022-11-20T15:35:58;4.00;99.90
3866;DHT22;1948;53.250;10.412;2022-11-20T15:38:26;4.00;99.90
3866;DHT22;1948;53.250;10.412;2022-11-20T15:40:53;3.90;99.90
3866;DHT22;1948;53.250;10.412;2022-11-20T15:43:22;3.80;99.90
3866;DHT22;1948;53.250;10.412;2022-11-20T15:45:51;3.80;99.90
3866;DHT22;1948;53.250;10.412;2022-11-20T15:48:50;3.80;99.90
3866;DHT22;1948;53.250;10.412;2022-11-20T15:51:30;3.90;99.90
3866;DHT22;1948;53.250;10.412;2022-11-20T15:54:10;3.80;99.90
3866;DHT22;1948;53.250;10.412;2022-11-20T15:56:39;3.80;99.90
3866;DHT22;1948;53.250;10.412;2022-11-20T15:59:08;3.70;99.90
3866;DHT22;1948;53.250;10.412;2022-11-20T16:01:36;3.60;99.90
3866;DHT22;1948;53.250;10.412;2022-11-20T16:04:09;3.60;99.90
3866;DHT22;1948;53.250;10.412;2022-11-20T16:06:42;3.70;99.90
3866;DHT22;1948;53.250;10.412;2022-11-20T16:09:10;3.70;99.90
3866;DHT22;1948;53.250;10.412;2022-11-20T16:11:38;3.70;99.90
3866;DHT22;1948;53.250;10.412;2022-11-20T16:14:06;3.70;99.90
3866;DHT22;1948;53.250;10.412;2022-11-20T16:16:54;3.70;99.90
3866;DHT22;1948;53.250;10.412;2022-11-20T16:19:21;3.70;99.90
3866;DHT22;1948;53.250;10.412;2022-11-20T16:21:49;3.70;99.90
3866;DHT22;1948;53.250;10.412;2022-11-20T16:24:16;3.60;99.90
3866;DHT22;1948;53.250;10.412;2022-11-20T16:26:44;3.60;99.90
3866;DHT22;1948;53.250;10.412;2022-11-20T16:29:11;3.60;99.90
3866;DHT22;1948;53.250;10.412;2022-11-20T16:31:38;3.70;99.90
3866;DHT22;1948;53.250;10.412;2022-11-20T16:34:10;3.60;99.90
3866;DHT22;1948;53.250;10.412;2022-11-20T16:36:49;3.60;99.90
3866;DHT22;1948;53.250;10.412;2022-11-20T16:39:19;3.60;99.90
3866;DHT22;1948;53.250;10.412;2022-11-20T16:41:49;3.70;99.90
3866;DHT22;1948;53.250;10.412;2022-11-20T16:44:16;3.70;99.90
3866;DHT22;1948;53.250;10.412;2022-11-20T16:46:43;3.70;99.90
3866;DHT22;1948;53.250;10.412;2022-11-20T16:49:13;3.70;99.90
3866;DHT22;1948;53.250;10.412;2022-11-20T16:51:42;3.60;99.90
3866;DHT22;1948;53.250;10.412;2022-11-20T16:54:10;3.60;99.90
3866;DHT22;1948;53.250;10.412;2022-11-20T16:56:46;3.60;99.90
3866;DHT22;1948;53.250;10.412;2022-11-20T16:59:17;3.50;99.90
3866;DHT22;1948;53.250;10.412;2022-11-20T17:01:46;3.30;99.90
3866;DHT22;1948;53.250;10.412;2022-11-20T17:04:14;3.20;99.90
3866;DHT22;1948;53.250;10.412;2022-11-20T17:06:44;3.20;99.90
3866;DHT22;1948;53.250;10.412;2022-11-20T17:09:11;3.20;99.90
3866;DHT22;1948;53.250;10.412;2022-11-20T17:11:42;3.00;99.90
3866;DHT22;1948;53.250;10.412;2022-11-20T17:14:10;3.00;99.90
3866;DHT22;1948;53.250;10.412;2022-11-20T17:16:38;3.00;99.90
3866;DHT22;1948;53.250;10.412;2022-11-20T17:19:05;2.90;99.90
3866;DHT22;1948;53.250;10.412;2022-11-20T17:21:34;2.80;99.90
3866;DHT22;1948;53.250;10.412;2022-11-20T17:24:10;2.70;99.90
3866;DHT22;1948;53.250;10.412;2022-11-20T17:26:39;2.70;99.90
3866;DHT22;1948;53.250;10.412;2022-11-20T17:29:10;2.70;99.90
3866;DHT22;1948;53.250;10.412;2022-11-20T17:31:39;2.60;99.90
3866;DHT22;1948;53.250;10.412;2022-11-20T17:34:09;2.70;99.90
3866;DHT22;1948;53.250;10.412;2022-11-20T17:36:43;2.70;99.90
3866;DHT22;1948;53.250;10.412;2022-11-20T17:39:15;2.60;99.90
3866;DHT22;1948;53.250;10.412;2022-11-20T17:41:43;2.70;99.90
3866;DHT22;1948;53.250;10.412;2022-11-20T17:44:36;2.60;99.90
3866;DHT22;1948;53.250;10.412;2022-11-20T17:47:03;2.60;99.90
3866;DHT22;1948;53.250;10.412;2022-11-20T17:49:30;2.60;99.90
3866;DHT22;1948;53.250;10.412;2022-11-20T17:51:59;2.60;99.90
3866;DHT22;1948;53.250;10.412;2022-11-20T17:54:29;2.50;99.90
3866;DHT22;1948;53.250;10.412;2022-11-20T17:56:58;2.40;99.90
3866;DHT22;1948;53.250;10.412;2022-11-20T17:59:43;2.30;99.90
3866;DHT22;1948;53.250;10.412;2022-11-20T18:02:10;2.20;99.90
3866;DHT22;1948;53.250;10.412;2022-11-20T18:04:37;2.10;99.90
3866;DHT22;1948;53.250;10.412;2022-11-20T18:07:05;2.00;99.90
3866;DHT22;1948;53.250;10.412;2022-11-20T18:09:32;1.90;99.90
3866;DHT22;1948;53.250;10.412;2022-11-20T18:11:59;1.80;99.90
3866;DHT22;1948;53.250;10.412;2022-11-20T18:14:25;1.60;99.90
3866;DHT22;1948;53.250;10.412;2022-11-20T18:17:19;1.60;99.90
3866;DHT22;1948;53.250;10.412;2022-11-20T18:19:47;1.70;99.90
3866;DHT22;1948;53.250;10.412;2022-11-20T18:22:34;1.60;99.90
3866;DHT22;1948;53.250;10.412;2022-11-20T18:25:02;1.50;99.90
3866;DHT22;1948;53.250;10.412;2022-11-20T18:27:30;1.50;99.90
3866;DHT22;1948;53.250;10.412;2022-11-20T18:30:09;1.50;99.90